ウシュアイア の空港の天気 - METARとTAF

ウシュアイア空港 ( SAWH / USH ) - アルゼンチン ティエラ・デル・フエゴ州、ウシュアイア
飛行場実況気象(Metar)
観測時間10/21 15:00 ART (10/21 18:00 UTC)
風向・風速北北西 7m/s
視程10km以上
天気現象
少しの雲 雲底高度 1370m
全天の8割程度の雲 雲底高度 2440m
気温13℃
湿度44%
気圧1005hPa
METARSAWH 211800Z 34014KT 9999 FEW045 BKN080 13/01 Q1005
過去の天気等 Google飛行場航空写真 Wunderground天気予報

過去48時間のMETAR

飛行場予報(TAF)
発表時間: 10/21 14:00 ART (10/21 17:00 UTC)
予報対象時間: 21日15時 ART ~ 22日15時 ART
風向・風速北北西 8m/s
視程10km以上
全天の4割程度の雲 雲底高度 1070m
全天の8割程度の雲 雲底高度 2740m
21日22時 ART ~ 21日24時 ART に徐々に
風向・風速西北西 5m/s
全天の8割程度の雲 雲底高度 910m
全天の8割程度の雲 雲底高度 1520m
22日4時 ART ~ 22日6時 ART に徐々に
風向・風速不定 3m/s
天気現象弱い雨
全天の4割程度の雲 雲底高度 610m
全天の8割程度の雲 雲底高度 910m
TAF SAWH 211700Z 2118/2218 34015KT 9999 SCT035 BKN090 TX13/2118Z TN05/2211Z
BECMG 2201/2203 30010KT BKN030 BKN050
BECMG 2207/2209 VRB05KT -RA SCT020 BKN030